createdAt,value
2022-08-26T00:01:00.870Z,16.30
2022-08-26T00:03:28.486Z,16.30
2022-08-26T00:05:55.440Z,16.20
2022-08-26T00:08:22.544Z,16.20
2022-08-26T00:10:49.491Z,16.20
2022-08-26T00:13:16.591Z,16.10
2022-08-26T00:15:47.115Z,16.10
2022-08-26T00:18:21.787Z,16.00
2022-08-26T00:20:49.926Z,16.00
2022-08-26T00:23:17.859Z,16.00
2022-08-26T00:25:44.862Z,15.90
2022-08-26T00:28:12.186Z,15.90
2022-08-26T00:30:39.220Z,15.80
2022-08-26T00:33:07.164Z,15.80
2022-08-26T00:35:34.901Z,15.80
2022-08-26T00:38:03.558Z,15.80
2022-08-26T00:40:33.474Z,15.70
2022-08-26T00:43:00.798Z,15.70
2022-08-26T00:45:29.341Z,15.60
2022-08-26T00:48:01.438Z,15.60
2022-08-26T00:50:36.391Z,15.60
2022-08-26T00:53:05.009Z,15.60
2022-08-26T00:55:38.230Z,15.60
2022-08-26T00:58:05.586Z,15.60
2022-08-26T01:00:32.762Z,15.70
2022-08-26T01:03:01.049Z,15.70
2022-08-26T01:05:28.599Z,15.80
2022-08-26T01:07:57.467Z,15.80
2022-08-26T01:10:27.899Z,15.80
2022-08-26T01:12:58.349Z,15.90
2022-08-26T01:15:27.853Z,16.00
2022-08-26T01:18:00.004Z,16.00
2022-08-26T01:20:45.475Z,16.00
2022-08-26T01:23:12.515Z,16.00
2022-08-26T01:25:43.242Z,16.00
2022-08-26T01:28:16.475Z,16.00
2022-08-26T01:30:44.643Z,15.90
2022-08-26T01:33:15.167Z,15.90
2022-08-26T01:35:42.935Z,15.90
2022-08-26T01:38:09.857Z,15.90
2022-08-26T01:40:37.753Z,15.80
2022-08-26T01:43:07.346Z,15.80
2022-08-26T01:45:35.336Z,15.70
2022-08-26T01:48:03.983Z,15.60
2022-08-26T01:50:32.693Z,15.60
2022-08-26T01:53:01.961Z,15.60
2022-08-26T01:55:32.324Z,15.60
2022-08-26T01:58:01.456Z,15.50
2022-08-26T02:00:28.395Z,15.50
2022-08-26T02:03:16.082Z,15.40
2022-08-26T02:05:53.419Z,15.40
2022-08-26T02:08:25.390Z,15.30
2022-08-26T02:10:54.895Z,15.30
2022-08-26T02:13:22.471Z,15.20
2022-08-26T02:15:49.795Z,15.20
2022-08-26T02:18:17.107Z,15.10
2022-08-26T02:20:44.520Z,15.00
2022-08-26T02:23:11.443Z,15.00
2022-08-26T02:25:51.703Z,14.90
2022-08-26T02:28:19.831Z,14.80
2022-08-26T02:30:47.293Z,14.80
2022-08-26T02:33:14.750Z,14.70
2022-08-26T02:35:41.849Z,14.70
2022-08-26T02:38:10.316Z,14.60
2022-08-26T02:40:40.942Z,14.60
2022-08-26T02:43:08.812Z,14.60
2022-08-26T02:45:35.995Z,14.50
2022-08-26T02:48:15.785Z,14.50
2022-08-26T02:50:42.696Z,14.50
2022-08-26T02:53:09.850Z,14.50
2022-08-26T02:55:37.262Z,14.40
2022-08-26T02:58:04.852Z,14.40
2022-08-26T03:00:32.759Z,14.30
2022-08-26T03:02:59.926Z,14.20
2022-08-26T03:05:26.940Z,14.30
2022-08-26T03:07:54.006Z,14.20
2022-08-26T03:10:21.518Z,14.10
2022-08-26T03:12:48.544Z,14.10
2022-08-26T03:15:17.899Z,14.10
2022-08-26T03:17:47.043Z,14.10
2022-08-26T03:20:15.588Z,14.10
2022-08-26T03:22:44.555Z,14.00
2022-08-26T03:25:12.883Z,14.10
2022-08-26T03:27:41.802Z,14.00
2022-08-26T03:30:29.639Z,14.00
2022-08-26T03:32:57.243Z,14.00
2022-08-26T03:35:25.278Z,13.90
2022-08-26T03:37:52.666Z,13.90
2022-08-26T03:40:20.345Z,13.90
2022-08-26T03:42:47.885Z,13.80
2022-08-26T03:45:15.845Z,13.80
2022-08-26T03:47:42.830Z,13.80
2022-08-26T03:50:11.058Z,13.80
2022-08-26T03:52:43.043Z,13.80
2022-08-26T03:55:10.980Z,13.80
2022-08-26T03:57:37.930Z,13.70
2022-08-26T04:00:06.610Z,13.70
2022-08-26T04:02:35.712Z,13.60
2022-08-26T04:05:03.018Z,13.60
2022-08-26T04:07:32.099Z,13.50
2022-08-26T04:10:00.223Z,13.40
2022-08-26T04:12:27.196Z,13.40
2022-08-26T04:14:54.178Z,13.30
2022-08-26T04:17:25.897Z,13.30
2022-08-26T04:19:53.903Z,13.30
2022-08-26T04:22:24.949Z,13.30
2022-08-26T04:24:52.569Z,13.30
2022-08-26T04:27:19.563Z,13.30
2022-08-26T04:29:47.785Z,13.30
2022-08-26T04:32:15.554Z,13.20
2022-08-26T04:34:43.613Z,13.20
2022-08-26T04:37:12.001Z,13.20
2022-08-26T04:39:39.052Z,13.20
2022-08-26T04:42:06.415Z,13.20
2022-08-26T04:44:34.983Z,13.10
2022-08-26T04:47:01.946Z,13.10
2022-08-26T04:49:35.469Z,13.10
2022-08-26T04:52:03.857Z,13.00
2022-08-26T04:54:31.730Z,13.00
2022-08-26T04:56:59.475Z,12.90
2022-08-26T04:59:26.441Z,12.90
2022-08-26T05:01:56.427Z,12.90
2022-08-26T05:04:23.525Z,12.80
2022-08-26T05:06:50.782Z,12.80
2022-08-26T05:09:19.122Z,12.80
2022-08-26T05:11:48.493Z,12.80
2022-08-26T05:14:19.798Z,12.80
2022-08-26T05:16:47.678Z,12.80
2022-08-26T05:19:15.378Z,12.80
2022-08-26T05:21:45.982Z,12.80
2022-08-26T05:24:14.301Z,12.80
2022-08-26T05:26:41.295Z,12.80
2022-08-26T05:29:08.284Z,12.90
2022-08-26T05:31:35.762Z,12.90
2022-08-26T05:34:04.563Z,13.00
2022-08-26T05:36:33.518Z,12.90
2022-08-26T05:39:01.136Z,12.90
2022-08-26T05:41:36.431Z,13.00
2022-08-26T05:44:07.156Z,13.10
2022-08-26T05:46:34.632Z,13.10
2022-08-26T05:49:02.598Z,13.20
2022-08-26T05:51:30.567Z,13.20
2022-08-26T05:53:58.388Z,13.30
2022-08-26T05:56:27.580Z,13.50
2022-08-26T05:58:55.886Z,13.60
2022-08-26T06:01:26.113Z,13.70
2022-08-26T06:03:54.870Z,13.80
2022-08-26T06:06:28.649Z,13.90
2022-08-26T06:08:59.317Z,14.00
2022-08-26T06:11:26.925Z,14.00
2022-08-26T06:13:54.627Z,14.00
2022-08-26T06:16:23.868Z,14.10
2022-08-26T06:18:51.779Z,14.20
2022-08-26T06:21:26.082Z,14.30
2022-08-26T06:24:13.516Z,14.50
2022-08-26T06:26:42.823Z,14.60
2022-08-26T06:29:10.031Z,14.70
2022-08-26T06:31:37.074Z,14.80
2022-08-26T06:34:10.522Z,15.00
2022-08-26T06:36:39.491Z,15.00
2022-08-26T06:39:07.546Z,15.10
2022-08-26T06:41:34.755Z,15.10
2022-08-26T06:44:02.602Z,15.10
2022-08-26T06:46:29.768Z,15.30
2022-08-26T06:48:58.361Z,15.40
2022-08-26T06:51:30.230Z,15.50
2022-08-26T06:53:59.554Z,15.50
2022-08-26T06:56:28.863Z,15.70
2022-08-26T06:58:55.869Z,15.80
2022-08-26T07:01:24.961Z,16.00
2022-08-26T07:03:53.243Z,16.10
2022-08-26T07:06:21.378Z,16.20
2022-08-26T07:08:49.184Z,16.30
2022-08-26T07:11:16.234Z,16.30
2022-08-26T07:13:43.703Z,16.60
2022-08-26T07:16:12.683Z,17.00
2022-08-26T07:18:42.172Z,17.60
2022-08-26T07:21:12.930Z,18.20
2022-08-26T07:23:41.514Z,18.80
2022-08-26T07:26:16.402Z,19.50
2022-08-26T07:28:47.377Z,20.00
2022-08-26T07:31:15.279Z,20.50
2022-08-26T07:33:42.624Z,21.00
2022-08-26T07:36:10.213Z,21.50
2022-08-26T07:38:37.878Z,21.90
2022-08-26T07:41:04.970Z,22.20
2022-08-26T07:43:32.403Z,22.50
2022-08-26T07:45:59.367Z,22.70
2022-08-26T07:48:26.702Z,23.10
2022-08-26T07:50:53.862Z,23.40
2022-08-26T07:53:21.534Z,23.80
2022-08-26T07:55:51.185Z,24.10
2022-08-26T07:58:19.346Z,24.20
2022-08-26T08:00:46.535Z,24.10
2022-08-26T08:03:15.010Z,24.30
2022-08-26T08:05:42.426Z,24.60
2022-08-26T08:08:19.731Z,24.90
2022-08-26T08:10:55.325Z,25.10
2022-08-26T08:13:22.642Z,25.40
2022-08-26T08:15:50.650Z,25.30
2022-08-26T08:18:20.546Z,25.60
2022-08-26T08:20:59.440Z,25.60
2022-08-26T08:23:32.263Z,25.90
2022-08-26T08:26:07.229Z,26.30
2022-08-26T08:28:35.954Z,26.50
2022-08-26T08:31:03.401Z,26.60
2022-08-26T08:33:30.542Z,26.80
2022-08-26T08:35:58.425Z,26.90
2022-08-26T08:38:25.671Z,27.00
2022-08-26T08:40:53.337Z,27.10
2022-08-26T08:43:38.306Z,27.10
2022-08-26T08:46:13.050Z,27.40
2022-08-26T08:48:43.824Z,27.60
2022-08-26T08:51:46.001Z,27.80
2022-08-26T08:54:13.538Z,28.00
2022-08-26T08:56:41.221Z,28.10
2022-08-26T08:59:17.482Z,28.30
2022-08-26T09:02:02.849Z,28.10
2022-08-26T09:04:48.043Z,28.10
2022-08-26T09:07:23.505Z,27.80
2022-08-26T09:10:00.006Z,27.60
2022-08-26T09:12:32.023Z,27.70
2022-08-26T09:15:15.187Z,28.30
2022-08-26T09:18:10.818Z,28.60
2022-08-26T09:20:49.281Z,28.70
2022-08-26T09:23:18.231Z,28.50
2022-08-26T09:25:48.106Z,27.50
2022-08-26T09:28:19.923Z,26.80
2022-08-26T09:30:53.666Z,26.20
2022-08-26T09:33:21.166Z,25.70
2022-08-26T09:35:49.177Z,25.30
2022-08-26T09:38:26.869Z,25.10
2022-08-26T09:41:02.938Z,25.10
2022-08-26T09:43:32.534Z,24.90
2022-08-26T09:46:29.296Z,24.80
2022-08-26T09:48:56.337Z,24.60
2022-08-26T09:51:32.536Z,24.50
2022-08-26T09:54:01.286Z,24.50
2022-08-26T09:56:32.129Z,24.50
2022-08-26T09:58:59.276Z,24.50
2022-08-26T10:01:30.188Z,24.40
2022-08-26T10:04:10.441Z,24.40
2022-08-26T10:06:56.303Z,24.30
2022-08-26T10:09:25.100Z,24.30
2022-08-26T10:11:53.919Z,24.40
2022-08-26T10:14:28.180Z,24.60
2022-08-26T10:17:11.489Z,24.60
2022-08-26T10:19:56.666Z,24.50
2022-08-26T10:22:39.210Z,24.30
2022-08-26T10:25:08.395Z,24.10
2022-08-26T10:27:55.605Z,24.20
2022-08-26T10:30:24.060Z,24.30
2022-08-26T10:32:54.007Z,24.20
2022-08-26T10:35:21.033Z,24.20
2022-08-26T10:37:51.103Z,24.40
2022-08-26T10:40:29.850Z,24.30
2022-08-26T10:43:11.632Z,24.40
2022-08-26T10:45:43.932Z,24.20
2022-08-26T10:48:36.048Z,24.00
2022-08-26T10:51:04.267Z,24.00
2022-08-26T10:53:42.516Z,24.30
2022-08-26T10:56:42.253Z,24.10
2022-08-26T10:59:29.106Z,24.30
2022-08-26T11:02:07.723Z,24.60
2022-08-26T11:04:44.399Z,24.60
2022-08-26T11:07:31.774Z,24.70
2022-08-26T11:10:00.451Z,25.00
2022-08-26T11:12:37.279Z,25.10
2022-08-26T11:15:11.061Z,25.10
2022-08-26T11:17:46.939Z,25.20
2022-08-26T11:20:23.807Z,25.20
2022-08-26T11:22:51.393Z,25.20
2022-08-26T11:25:24.470Z,25.30
2022-08-26T11:27:57.275Z,25.40
2022-08-26T11:30:25.175Z,25.20
2022-08-26T11:32:55.523Z,25.10
2022-08-26T11:35:25.225Z,24.80
2022-08-26T11:37:56.694Z,24.80
2022-08-26T11:40:29.605Z,24.70
2022-08-26T11:43:06.273Z,24.50
2022-08-26T11:45:37.647Z,24.40
2022-08-26T11:48:21.742Z,24.10
2022-08-26T11:51:01.639Z,24.30
2022-08-26T11:53:30.985Z,24.40
2022-08-26T11:56:02.126Z,24.30
2022-08-26T11:58:29.225Z,24.40
2022-08-26T12:01:09.743Z,24.40
2022-08-26T12:03:47.461Z,24.40
2022-08-26T12:06:31.093Z,24.40
2022-08-26T12:09:02.926Z,24.50
2022-08-26T12:11:36.023Z,24.60
2022-08-26T12:14:08.108Z,24.70
2022-08-26T12:16:37.744Z,24.60
2022-08-26T12:19:33.112Z,24.70
2022-08-26T12:22:19.135Z,24.70
2022-08-26T12:24:55.117Z,24.80
2022-08-26T12:27:29.318Z,24.90
2022-08-26T12:30:06.794Z,25.10
2022-08-26T12:32:36.245Z,25.20
2022-08-26T12:37:35.234Z,24.90
2022-08-26T12:40:27.581Z,24.90
2022-08-26T12:42:54.792Z,25.20
2022-08-26T12:45:33.529Z,25.40
2022-08-26T12:48:06.118Z,25.70
2022-08-26T12:50:34.676Z,25.80
2022-08-26T12:53:10.706Z,25.70
2022-08-26T12:55:54.063Z,25.60
2022-08-26T12:58:39.735Z,25.60
2022-08-26T13:01:07.103Z,25.50
2022-08-26T13:03:34.117Z,25.60
2022-08-26T13:06:20.881Z,25.70
2022-08-26T13:09:29.598Z,25.50
2022-08-26T13:11:57.372Z,25.20
2022-08-26T13:14:24.802Z,25.10
2022-08-26T13:16:52.252Z,25.10
2022-08-26T13:19:21.176Z,25.00
2022-08-26T13:22:01.033Z,24.90
2022-08-26T13:24:39.813Z,24.80
2022-08-26T13:27:07.838Z,24.80
2022-08-26T13:29:34.947Z,24.70
2022-08-26T13:32:02.007Z,24.70
2022-08-26T13:34:28.971Z,24.80
2022-08-26T13:36:56.479Z,24.80
2022-08-26T13:39:23.896Z,24.90
2022-08-26T13:41:50.929Z,24.70
2022-08-26T13:44:18.054Z,24.60
2022-08-26T13:49:31.867Z,24.40
2022-08-26T13:51:58.839Z,24.40
2022-08-26T13:54:25.818Z,24.30
2022-08-26T13:56:52.849Z,24.20
2022-08-26T13:59:19.867Z,24.30
2022-08-26T14:01:46.958Z,24.40
2022-08-26T14:04:13.930Z,24.40
2022-08-26T14:06:40.982Z,24.40
2022-08-26T14:09:07.870Z,24.60
2022-08-26T14:11:53.856Z,24.50
2022-08-26T14:14:21.972Z,24.60
2022-08-26T14:16:59.108Z,24.70
2022-08-26T14:19:30.825Z,24.80
2022-08-26T14:21:57.856Z,24.90
2022-08-26T14:24:24.750Z,25.00
2022-08-26T14:26:51.713Z,25.10
2022-08-26T14:29:18.600Z,25.00
2022-08-26T14:31:45.565Z,24.90
2022-08-26T14:34:12.551Z,24.90
2022-08-26T14:36:39.537Z,24.90
2022-08-26T14:39:09.169Z,24.90
2022-08-26T14:41:53.828Z,24.80
2022-08-26T14:44:22.172Z,24.70
2022-08-26T14:46:50.496Z,24.70
2022-08-26T14:49:17.848Z,24.60
2022-08-26T14:51:45.255Z,24.60
2022-08-26T14:54:16.335Z,24.50
2022-08-26T14:56:54.146Z,24.50
2022-08-26T14:59:29.558Z,24.50
2022-08-26T15:01:56.822Z,24.60
2022-08-26T15:04:24.312Z,24.60
2022-08-26T15:06:53.861Z,24.60
2022-08-26T15:09:21.097Z,24.60
2022-08-26T15:11:48.562Z,24.50
2022-08-26T15:14:19.509Z,24.50
2022-08-26T15:16:48.354Z,24.40
2022-08-26T15:19:16.083Z,24.40
2022-08-26T15:21:43.511Z,24.30
2022-08-26T15:24:10.497Z,24.30
2022-08-26T15:26:37.695Z,24.30
2022-08-26T15:29:05.379Z,24.30
2022-08-26T15:31:32.533Z,24.30
2022-08-26T15:34:02.558Z,24.30
2022-08-26T15:36:30.034Z,24.20
2022-08-26T15:38:58.206Z,24.10
2022-08-26T15:41:25.202Z,24.10
2022-08-26T15:43:52.434Z,24.00
2022-08-26T15:46:19.694Z,24.00
2022-08-26T15:48:46.750Z,24.00
2022-08-26T15:51:20.960Z,24.10
2022-08-26T15:53:49.778Z,24.10
2022-08-26T15:56:17.006Z,24.20
2022-08-26T15:58:45.394Z,24.10
2022-08-26T16:01:12.755Z,24.20
2022-08-26T16:03:44.451Z,24.20
2022-08-26T16:06:15.297Z,24.30
2022-08-26T16:08:42.880Z,24.40
2022-08-26T16:11:09.828Z,24.40
2022-08-26T16:13:39.879Z,24.40
2022-08-26T16:16:07.434Z,24.40
2022-08-26T16:18:34.502Z,24.50
2022-08-26T16:21:13.371Z,24.50
2022-08-26T16:23:45.004Z,24.50
2022-08-26T16:26:17.866Z,24.60
2022-08-26T16:28:45.121Z,24.70
2022-08-26T16:31:12.373Z,24.60
2022-08-26T16:33:40.015Z,24.60
2022-08-26T16:36:07.475Z,24.50
2022-08-26T16:38:34.736Z,24.50
2022-08-26T16:41:01.723Z,24.40
2022-08-26T16:43:28.871Z,24.40
2022-08-26T16:45:56.121Z,24.40
2022-08-26T16:48:23.796Z,24.40
2022-08-26T16:50:51.407Z,24.30
2022-08-26T16:53:19.106Z,24.30
2022-08-26T16:55:47.335Z,24.30
2022-08-26T16:58:14.772Z,24.30
2022-08-26T17:00:41.892Z,24.30
2022-08-26T17:03:09.147Z,24.30
2022-08-26T17:05:36.395Z,24.20
2022-08-26T17:08:03.941Z,24.20
2022-08-26T17:10:31.176Z,24.20
2022-08-26T17:12:58.201Z,24.20
2022-08-26T17:15:25.574Z,24.10
2022-08-26T17:17:53.175Z,24.00
2022-08-26T17:20:20.342Z,24.00
2022-08-26T17:22:48.486Z,24.00
2022-08-26T17:25:30.190Z,23.90
2022-08-26T17:27:57.382Z,23.80
2022-08-26T17:30:25.947Z,23.80
2022-08-26T17:32:54.155Z,23.80
2022-08-26T17:35:21.267Z,23.70
2022-08-26T17:37:48.239Z,23.70
2022-08-26T17:40:17.611Z,23.60
2022-08-26T17:42:44.530Z,23.60
2022-08-26T17:45:12.042Z,23.50
2022-08-26T17:47:39.166Z,23.40
2022-08-26T17:50:09.232Z,23.30
2022-08-26T17:52:37.226Z,23.20
2022-08-26T17:55:05.843Z,23.10
2022-08-26T17:57:32.865Z,23.00
2022-08-26T18:00:11.480Z,23.00
2022-08-26T18:02:38.813Z,23.00
2022-08-26T18:05:06.546Z,22.90
2022-08-26T18:07:33.721Z,22.90
2022-08-26T18:10:13.190Z,22.90
2022-08-26T18:12:41.061Z,22.80
2022-08-26T18:15:08.689Z,22.70
2022-08-26T18:17:35.638Z,22.70
2022-08-26T18:20:02.795Z,22.60
2022-08-26T18:22:30.098Z,22.50
2022-08-26T18:24:58.658Z,22.50
2022-08-26T18:27:26.681Z,22.40
2022-08-26T18:29:54.798Z,22.40
2022-08-26T18:32:21.826Z,22.30
2022-08-26T18:34:48.982Z,22.20
2022-08-26T18:37:15.929Z,22.20
2022-08-26T18:39:42.919Z,22.20
2022-08-26T18:42:09.865Z,22.30
2022-08-26T18:44:36.943Z,22.20
2022-08-26T18:47:04.444Z,22.20
2022-08-26T18:49:31.554Z,22.10
2022-08-26T18:51:58.478Z,22.00
2022-08-26T18:54:25.599Z,22.00
2022-08-26T18:56:52.767Z,21.90
2022-08-26T18:59:19.877Z,21.80
2022-08-26T19:01:56.721Z,21.80
2022-08-26T19:04:32.651Z,21.70
2022-08-26T19:06:59.648Z,21.70
2022-08-26T19:09:27.336Z,21.60
2022-08-26T19:14:23.724Z,21.50
2022-08-26T19:16:52.504Z,21.50
2022-08-26T19:19:20.688Z,21.50
2022-08-26T19:21:48.145Z,21.50
2022-08-26T19:24:17.446Z,21.50
2022-08-26T19:26:45.701Z,21.60
2022-08-26T19:29:13.219Z,21.60
2022-08-26T19:31:40.875Z,21.60
2022-08-26T19:34:10.277Z,21.60
2022-08-26T19:36:37.870Z,21.60
2022-08-26T19:39:06.167Z,21.60
2022-08-26T19:41:37.430Z,21.70
2022-08-26T19:44:10.594Z,21.60
2022-08-26T19:49:05.869Z,21.50
2022-08-26T19:51:34.107Z,21.50
2022-08-26T19:54:01.301Z,21.60
2022-08-26T19:56:28.567Z,21.50
2022-08-26T19:58:56.046Z,21.50
2022-08-26T20:01:23.513Z,21.50
2022-08-26T20:03:50.704Z,21.40
2022-08-26T20:06:17.881Z,21.30
2022-08-26T20:08:45.002Z,21.20
2022-08-26T20:11:15.270Z,21.10
2022-08-26T20:13:42.626Z,21.10
2022-08-26T20:16:11.970Z,21.00
2022-08-26T20:18:58.295Z,20.90
2022-08-26T20:21:28.177Z,20.80
2022-08-26T20:24:06.363Z,20.70
2022-08-26T20:26:37.520Z,20.70
2022-08-26T20:29:04.890Z,20.60
2022-08-26T20:31:31.996Z,20.60
2022-08-26T20:33:58.968Z,20.50
2022-08-26T20:36:27.081Z,20.50
2022-08-26T20:38:54.507Z,20.50
2022-08-26T20:41:22.031Z,20.40
2022-08-26T20:43:49.046Z,20.40
2022-08-26T20:46:17.954Z,20.40
2022-08-26T20:48:47.319Z,20.30
2022-08-26T20:51:14.805Z,20.30
2022-08-26T20:53:41.899Z,20.20
2022-08-26T20:56:09.444Z,20.20
2022-08-26T20:58:36.621Z,20.20
2022-08-26T21:01:07.530Z,20.10
2022-08-26T21:03:36.035Z,20.10
2022-08-26T21:06:03.778Z,20.00
2022-08-26T21:08:33.092Z,19.90
2022-08-26T21:11:01.108Z,19.90
2022-08-26T21:13:35.769Z,19.90
2022-08-26T21:16:10.405Z,19.80
2022-08-26T21:18:37.508Z,19.80
2022-08-26T21:21:08.097Z,19.70
2022-08-26T21:23:35.679Z,19.60
2022-08-26T21:26:03.967Z,19.60
2022-08-26T21:28:31.249Z,19.50
2022-08-26T21:30:58.226Z,19.40
2022-08-26T21:33:25.267Z,19.40
2022-08-26T21:35:53.324Z,19.30
2022-08-26T21:38:20.424Z,19.20
2022-08-26T21:41:07.103Z,19.10
2022-08-26T21:43:35.397Z,19.10
2022-08-26T21:46:11.465Z,19.00
2022-08-26T21:48:39.238Z,18.90
2022-08-26T21:51:06.457Z,18.80
2022-08-26T21:53:33.398Z,18.70
2022-08-26T21:56:04.094Z,18.70
2022-08-26T21:58:31.007Z,18.60
2022-08-26T22:00:57.971Z,18.50
2022-08-26T22:03:25.498Z,18.50
2022-08-26T22:05:52.637Z,18.40
2022-08-26T22:08:20.435Z,18.30
2022-08-26T22:10:51.991Z,18.20
2022-08-26T22:13:20.578Z,18.20
2022-08-26T22:15:48.169Z,18.10
2022-08-26T22:18:15.739Z,18.10
2022-08-26T22:20:42.729Z,18.00
2022-08-26T22:23:09.884Z,18.00
2022-08-26T22:25:36.943Z,18.00
2022-08-26T22:28:04.216Z,17.90
2022-08-26T22:30:31.432Z,17.90
2022-08-26T22:32:58.581Z,17.80
2022-08-26T22:35:28.980Z,17.70
2022-08-26T22:37:57.307Z,17.70
2022-08-26T22:40:24.466Z,17.70
2022-08-26T22:42:57.865Z,17.60
2022-08-26T22:45:27.491Z,17.60
2022-08-26T22:47:54.502Z,17.50
2022-08-26T22:50:21.852Z,17.50
2022-08-26T22:52:48.771Z,17.50
2022-08-26T22:55:15.838Z,17.40
2022-08-26T22:57:42.813Z,17.40
2022-08-26T23:00:13.156Z,17.30
2022-08-26T23:02:41.341Z,17.30
2022-08-26T23:05:08.795Z,17.30
2022-08-26T23:07:35.790Z,17.10
2022-08-26T23:10:04.105Z,17.10
2022-08-26T23:12:31.545Z,17.00
2022-08-26T23:14:58.760Z,17.00
2022-08-26T23:17:25.731Z,17.00
2022-08-26T23:19:52.730Z,17.00
2022-08-26T23:22:19.718Z,16.90
2022-08-26T23:24:46.623Z,16.90
2022-08-26T23:27:13.963Z,16.80
2022-08-26T23:29:41.039Z,16.80
2022-08-26T23:32:08.094Z,16.70
2022-08-26T23:34:54.016Z,16.60
2022-08-26T23:37:21.110Z,16.60
2022-08-26T23:39:49.836Z,16.60
2022-08-26T23:42:16.866Z,16.50
2022-08-26T23:44:43.832Z,16.50
2022-08-26T23:47:11.074Z,16.50
2022-08-26T23:49:38.070Z,16.40
2022-08-26T23:52:23.909Z,16.40
2022-08-26T23:54:52.434Z,16.30
2022-08-26T23:57:20.403Z,16.30
2022-08-26T23:59:48.598Z,16.30
